Terminal Aerodrome Forecast
Issued by NWS Brownsville, TX

Home | Current Version | Previous Version | Text Only | Print | Product List | Glossary On
Versions: 1 2 3 4 5 6 7 8 9 10 11 12 13 14 15
000
FTUS44 KBRO 010500
TAFMFE
TAF
KMFE 010520Z 0106/0206 32003KT P6SM SKC
     FM012000 10009KT P6SM SCT250
     FM012300 10010KT P6SM SCT250=

USA.gov is the U.S. government's official web portal to all federal, state and local government web resources and services.